sensor_id;sensor_type;location;lat;lon;timestamp;P1;durP1;ratioP1;P2;durP2;ratioP2
17214;SDS011;8723;51.502;6.918;2024-02-26T00:00:23;3.70;;;3.20;;
17214;SDS011;8723;51.502;6.918;2024-02-26T00:02:50;3.88;;;3.50;;
17214;SDS011;8723;51.502;6.918;2024-02-26T00:05:19;3.50;;;3.17;;
17214;SDS011;8723;51.502;6.918;2024-02-26T00:07:47;3.60;;;3.30;;
17214;SDS011;8723;51.502;6.918;2024-02-26T00:10:16;4.55;;;3.28;;
17214;SDS011;8723;51.502;6.918;2024-02-26T00:12:43;4.53;;;3.45;;
17214;SDS011;8723;51.502;6.918;2024-02-26T00:15:10;4.27;;;3.27;;
17214;SDS011;8723;51.502;6.918;2024-02-26T00:17:37;4.15;;;3.40;;
17214;SDS011;8723;51.502;6.918;2024-02-26T00:20:05;4.37;;;3.37;;
17214;SDS011;8723;51.502;6.918;2024-02-26T00:22:35;3.97;;;3.67;;
17214;SDS011;8723;51.502;6.918;2024-02-26T00:25:03;4.10;;;3.70;;
17214;SDS011;8723;51.502;6.918;2024-02-26T00:27:30;4.00;;;3.70;;
17214;SDS011;8723;51.502;6.918;2024-02-26T00:29:57;4.00;;;3.58;;
17214;SDS011;8723;51.502;6.918;2024-02-26T00:32:24;4.50;;;4.10;;
17214;SDS011;8723;51.502;6.918;2024-02-26T00:34:51;4.53;;;3.95;;
17214;SDS011;8723;51.502;6.918;2024-02-26T00:37:18;4.40;;;4.00;;
17214;SDS011;8723;51.502;6.918;2024-02-26T00:39:49;4.57;;;4.10;;
17214;SDS011;8723;51.502;6.918;2024-02-26T00:42:18;5.03;;;4.28;;
17214;SDS011;8723;51.502;6.918;2024-02-26T00:44:45;4.40;;;4.00;;
17214;SDS011;8723;51.502;6.918;2024-02-26T00:47:12;4.32;;;3.92;;
17214;SDS011;8723;51.502;6.918;2024-02-26T00:49:39;4.88;;;3.83;;
17214;SDS011;8723;51.502;6.918;2024-02-26T00:52:06;5.00;;;4.00;;
17214;SDS011;8723;51.502;6.918;2024-02-26T00:54:33;4.25;;;3.72;;
17214;SDS011;8723;51.502;6.918;2024-02-26T00:57:02;4.88;;;3.60;;
17214;SDS011;8723;51.502;6.918;2024-02-26T00:59:29;4.10;;;3.60;;
17214;SDS011;8723;51.502;6.918;2024-02-26T01:01:57;4.57;;;3.63;;
17214;SDS011;8723;51.502;6.918;2024-02-26T01:04:27;3.85;;;3.55;;
17214;SDS011;8723;51.502;6.918;2024-02-26T01:06:54;4.32;;;3.78;;
17214;SDS011;8723;51.502;6.918;2024-02-26T01:09:21;4.45;;;4.05;;
17214;SDS011;8723;51.502;6.918;2024-02-26T01:11:48;4.13;;;3.70;;
17214;SDS011;8723;51.502;6.918;2024-02-26T01:14:17;3.60;;;3.30;;
17214;SDS011;8723;51.502;6.918;2024-02-26T01:16:44;8.45;;;3.72;;
17214;SDS011;8723;51.502;6.918;2024-02-26T01:19:11;10.15;;;3.85;;
17214;SDS011;8723;51.502;6.918;2024-02-26T01:21:38;28.27;;;5.72;;
17214;SDS011;8723;51.502;6.918;2024-02-26T01:24:05;4.55;;;3.92;;
17214;SDS011;8723;51.502;6.918;2024-02-26T01:26:33;4.97;;;4.47;;
17214;SDS011;8723;51.502;6.918;2024-02-26T01:29:00;5.45;;;4.63;;
17214;SDS011;8723;51.502;6.918;2024-02-26T01:31:28;5.35;;;4.85;;
17214;SDS011;8723;51.502;6.918;2024-02-26T01:33:56;4.43;;;4.03;;
17214;SDS011;8723;51.502;6.918;2024-02-26T01:36:23;4.15;;;3.75;;
17214;SDS011;8723;51.502;6.918;2024-02-26T01:38:50;4.25;;;3.85;;
17214;SDS011;8723;51.502;6.918;2024-02-26T01:41:17;3.92;;;3.55;;
17214;SDS011;8723;51.502;6.918;2024-02-26T01:43:44;3.70;;;3.40;;
17214;SDS011;8723;51.502;6.918;2024-02-26T01:46:12;4.15;;;3.75;;
17214;SDS011;8723;51.502;6.918;2024-02-26T01:48:41;3.80;;;3.50;;
17214;SDS011;8723;51.502;6.918;2024-02-26T01:51:09;4.07;;;3.60;;
17214;SDS011;8723;51.502;6.918;2024-02-26T01:53:36;3.80;;;3.50;;
17214;SDS011;8723;51.502;6.918;2024-02-26T01:56:04;3.77;;;3.47;;
17214;SDS011;8723;51.502;6.918;2024-02-26T01:58:31;5.20;;;3.72;;
17214;SDS011;8723;51.502;6.918;2024-02-26T02:00:59;3.65;;;3.35;;
17214;SDS011;8723;51.502;6.918;2024-02-26T02:03:26;4.10;;;3.70;;
17214;SDS011;8723;51.502;6.918;2024-02-26T02:05:55;3.67;;;3.37;;
17214;SDS011;8723;51.502;6.918;2024-02-26T02:08:22;4.55;;;3.78;;
17214;SDS011;8723;51.502;6.918;2024-02-26T02:10:50;4.05;;;3.40;;
17214;SDS011;8723;51.502;6.918;2024-02-26T02:13:17;3.72;;;3.35;;
17214;SDS011;8723;51.502;6.918;2024-02-26T02:15:44;3.75;;;3.45;;
17214;SDS011;8723;51.502;6.918;2024-02-26T02:18:11;3.58;;;3.28;;
17214;SDS011;8723;51.502;6.918;2024-02-26T02:20:40;3.30;;;3.00;;
17214;SDS011;8723;51.502;6.918;2024-02-26T02:23:07;3.50;;;3.20;;
17214;SDS011;8723;51.502;6.918;2024-02-26T02:25:34;3.58;;;3.13;;
17214;SDS011;8723;51.502;6.918;2024-02-26T02:28:01;3.60;;;3.30;;
17214;SDS011;8723;51.502;6.918;2024-02-26T02:30:29;3.55;;;3.22;;
17214;SDS011;8723;51.502;6.918;2024-02-26T02:32:58;3.42;;;3.13;;
17214;SDS011;8723;51.502;6.918;2024-02-26T02:35:25;3.75;;;3.00;;
17214;SDS011;8723;51.502;6.918;2024-02-26T02:37:54;3.42;;;3.17;;
17214;SDS011;8723;51.502;6.918;2024-02-26T02:40:21;3.40;;;3.10;;
17214;SDS011;8723;51.502;6.918;2024-02-26T02:42:48;3.15;;;2.85;;
17214;SDS011;8723;51.502;6.918;2024-02-26T02:45:17;3.50;;;3.20;;
17214;SDS011;8723;51.502;6.918;2024-02-26T02:47:45;3.58;;;3.28;;
17214;SDS011;8723;51.502;6.918;2024-02-26T02:50:14;3.60;;;3.20;;
17214;SDS011;8723;51.502;6.918;2024-02-26T02:52:42;3.38;;;3.10;;
17214;SDS011;8723;51.502;6.918;2024-02-26T02:55:13;3.60;;;3.35;;
17214;SDS011;8723;51.502;6.918;2024-02-26T02:57:42;3.53;;;3.20;;
17214;SDS011;8723;51.502;6.918;2024-02-26T03:00:12;3.22;;;3.03;;
17214;SDS011;8723;51.502;6.918;2024-02-26T03:02:41;3.65;;;2.95;;
17214;SDS011;8723;51.502;6.918;2024-02-26T03:05:11;3.30;;;3.00;;
17214;SDS011;8723;51.502;6.918;2024-02-26T03:07:40;3.78;;;2.80;;
17214;SDS011;8723;51.502;6.918;2024-02-26T03:10:09;3.08;;;2.78;;
17214;SDS011;8723;51.502;6.918;2024-02-26T03:12:41;2.80;;;2.60;;
17214;SDS011;8723;51.502;6.918;2024-02-26T03:15:10;2.97;;;2.78;;
17214;SDS011;8723;51.502;6.918;2024-02-26T03:17:39;3.00;;;2.60;;
17214;SDS011;8723;51.502;6.918;2024-02-26T03:20:09;2.70;;;2.50;;
17214;SDS011;8723;51.502;6.918;2024-02-26T03:22:38;3.10;;;2.80;;
17214;SDS011;8723;51.502;6.918;2024-02-26T03:25:07;2.80;;;2.60;;
17214;SDS011;8723;51.502;6.918;2024-02-26T03:27:36;2.38;;;2.25;;
17214;SDS011;8723;51.502;6.918;2024-02-26T03:30:08;3.08;;;2.78;;
17214;SDS011;8723;51.502;6.918;2024-02-26T03:32:37;3.00;;;2.80;;
17214;SDS011;8723;51.502;6.918;2024-02-26T03:35:07;3.03;;;2.72;;
17214;SDS011;8723;51.502;6.918;2024-02-26T03:37:36;3.55;;;2.90;;
17214;SDS011;8723;51.502;6.918;2024-02-26T03:40:06;2.83;;;2.63;;
17214;SDS011;8723;51.502;6.918;2024-02-26T03:42:35;3.00;;;2.80;;
17214;SDS011;8723;51.502;6.918;2024-02-26T03:45:04;3.13;;;2.90;;
17214;SDS011;8723;51.502;6.918;2024-02-26T03:47:37;3.00;;;2.80;;
17214;SDS011;8723;51.502;6.918;2024-02-26T03:50:07;3.45;;;3.15;;
17214;SDS011;8723;51.502;6.918;2024-02-26T03:52:36;4.13;;;3.58;;
17214;SDS011;8723;51.502;6.918;2024-02-26T03:55:06;4.05;;;3.67;;
17214;SDS011;8723;51.502;6.918;2024-02-26T03:57:35;4.53;;;4.10;;
17214;SDS011;8723;51.502;6.918;2024-02-26T04:00:03;4.82;;;4.20;;
17214;SDS011;8723;51.502;6.918;2024-02-26T04:02:32;4.75;;;4.30;;
17214;SDS011;8723;51.502;6.918;2024-02-26T04:05:04;4.47;;;4.05;;
17214;SDS011;8723;51.502;6.918;2024-02-26T04:07:33;4.80;;;4.40;;
17214;SDS011;8723;51.502;6.918;2024-02-26T04:10:02;5.00;;;4.32;;
17214;SDS011;8723;51.502;6.918;2024-02-26T04:12:31;4.53;;;4.13;;
17214;SDS011;8723;51.502;6.918;2024-02-26T04:14:59;4.45;;;4.03;;
17214;SDS011;8723;51.502;6.918;2024-02-26T04:17:26;4.00;;;3.70;;
17214;SDS011;8723;51.502;6.918;2024-02-26T04:19:54;4.43;;;3.80;;
17214;SDS011;8723;51.502;6.918;2024-02-26T04:22:22;3.88;;;3.58;;
17214;SDS011;8723;51.502;6.918;2024-02-26T04:24:49;3.80;;;3.40;;
17214;SDS011;8723;51.502;6.918;2024-02-26T04:27:16;4.30;;;3.90;;
17214;SDS011;8723;51.502;6.918;2024-02-26T04:29:43;4.20;;;3.90;;
17214;SDS011;8723;51.502;6.918;2024-02-26T04:32:10;4.38;;;3.97;;
17214;SDS011;8723;51.502;6.918;2024-02-26T04:34:38;4.15;;;3.85;;
17214;SDS011;8723;51.502;6.918;2024-02-26T04:37:05;3.72;;;3.42;;
17214;SDS011;8723;51.502;6.918;2024-02-26T04:39:33;4.15;;;3.85;;
17214;SDS011;8723;51.502;6.918;2024-02-26T04:42:00;4.10;;;3.70;;
17214;SDS011;8723;51.502;6.918;2024-02-26T04:44:28;4.45;;;4.05;;
17214;SDS011;8723;51.502;6.918;2024-02-26T04:46:56;4.07;;;3.78;;
17214;SDS011;8723;51.502;6.918;2024-02-26T04:49:23;4.60;;;4.30;;
17214;SDS011;8723;51.502;6.918;2024-02-26T04:51:50;4.20;;;3.80;;
17214;SDS011;8723;51.502;6.918;2024-02-26T04:54:17;4.40;;;4.00;;
17214;SDS011;8723;51.502;6.918;2024-02-26T04:56:46;4.55;;;4.15;;
17214;SDS011;8723;51.502;6.918;2024-02-26T04:59:13;4.60;;;4.20;;
17214;SDS011;8723;51.502;6.918;2024-02-26T05:01:40;4.00;;;3.70;;
17214;SDS011;8723;51.502;6.918;2024-02-26T05:04:07;4.28;;;3.90;;
17214;SDS011;8723;51.502;6.918;2024-02-26T05:06:36;4.10;;;3.80;;
17214;SDS011;8723;51.502;6.918;2024-02-26T05:09:03;4.03;;;3.65;;
17214;SDS011;8723;51.502;6.918;2024-02-26T05:11:30;4.00;;;3.60;;
17214;SDS011;8723;51.502;6.918;2024-02-26T05:13:59;5.23;;;4.30;;
17214;SDS011;8723;51.502;6.918;2024-02-26T05:16:26;5.03;;;4.30;;
17214;SDS011;8723;51.502;6.918;2024-02-26T05:18:55;5.30;;;4.80;;
17214;SDS011;8723;51.502;6.918;2024-02-26T05:21:22;5.20;;;4.70;;
17214;SDS011;8723;51.502;6.918;2024-02-26T05:23:49;4.90;;;4.50;;
17214;SDS011;8723;51.502;6.918;2024-02-26T05:26:19;4.53;;;4.13;;
17214;SDS011;8723;51.502;6.918;2024-02-26T05:28:47;4.45;;;4.15;;
17214;SDS011;8723;51.502;6.918;2024-02-26T05:31:15;4.43;;;4.03;;
17214;SDS011;8723;51.502;6.918;2024-02-26T05:33:43;4.93;;;4.53;;
17214;SDS011;8723;51.502;6.918;2024-02-26T05:36:10;4.40;;;4.00;;
17214;SDS011;8723;51.502;6.918;2024-02-26T05:38:37;5.10;;;4.60;;
17214;SDS011;8723;51.502;6.918;2024-02-26T05:41:04;5.25;;;4.78;;
17214;SDS011;8723;51.502;6.918;2024-02-26T05:43:33;5.32;;;4.93;;
17214;SDS011;8723;51.502;6.918;2024-02-26T05:46:00;5.80;;;5.30;;
17214;SDS011;8723;51.502;6.918;2024-02-26T05:48:28;5.75;;;5.35;;
17214;SDS011;8723;51.502;6.918;2024-02-26T05:50:57;6.97;;;5.80;;
17214;SDS011;8723;51.502;6.918;2024-02-26T05:53:24;6.88;;;6.18;;
17214;SDS011;8723;51.502;6.918;2024-02-26T05:55:51;7.32;;;6.63;;
17214;SDS011;8723;51.502;6.918;2024-02-26T05:58:18;7.35;;;6.57;;
17214;SDS011;8723;51.502;6.918;2024-02-26T06:00:48;7.50;;;6.78;;
17214;SDS011;8723;51.502;6.918;2024-02-26T06:03:15;7.50;;;6.90;;
17214;SDS011;8723;51.502;6.918;2024-02-26T06:05:44;7.72;;;7.03;;
17214;SDS011;8723;51.502;6.918;2024-02-26T06:08:11;7.00;;;6.40;;
17214;SDS011;8723;51.502;6.918;2024-02-26T06:10:38;8.07;;;7.32;;
17214;SDS011;8723;51.502;6.918;2024-02-26T06:13:06;8.30;;;7.60;;
17214;SDS011;8723;51.502;6.918;2024-02-26T06:15:33;8.95;;;8.15;;
17214;SDS011;8723;51.502;6.918;2024-02-26T06:18:00;8.68;;;7.88;;
17214;SDS011;8723;51.502;6.918;2024-02-26T06:20:27;8.18;;;7.50;;
17214;SDS011;8723;51.502;6.918;2024-02-26T06:22:55;7.80;;;7.20;;
17214;SDS011;8723;51.502;6.918;2024-02-26T06:25:23;7.20;;;6.60;;
17214;SDS011;8723;51.502;6.918;2024-02-26T06:27:50;6.32;;;5.82;;
17214;SDS011;8723;51.502;6.918;2024-02-26T06:30:17;6.90;;;6.20;;
17214;SDS011;8723;51.502;6.918;2024-02-26T06:32:45;7.70;;;7.00;;
17214;SDS011;8723;51.502;6.918;2024-02-26T06:35:12;7.97;;;7.38;;
17214;SDS011;8723;51.502;6.918;2024-02-26T06:37:39;7.78;;;7.07;;
17214;SDS011;8723;51.502;6.918;2024-02-26T06:40:08;7.97;;;7.28;;
17214;SDS011;8723;51.502;6.918;2024-02-26T06:42:35;7.28;;;6.65;;
17214;SDS011;8723;51.502;6.918;2024-02-26T06:45:03;7.30;;;6.60;;
17214;SDS011;8723;51.502;6.918;2024-02-26T06:47:30;6.95;;;6.28;;
17214;SDS011;8723;51.502;6.918;2024-02-26T06:49:57;7.40;;;6.70;;
17214;SDS011;8723;51.502;6.918;2024-02-26T06:52:25;6.80;;;6.20;;
17214;SDS011;8723;51.502;6.918;2024-02-26T06:54:53;7.85;;;7.05;;
17214;SDS011;8723;51.502;6.918;2024-02-26T06:57:21;7.32;;;6.72;;
17214;SDS011;8723;51.502;6.918;2024-02-26T06:59:48;7.28;;;6.68;;
17214;SDS011;8723;51.502;6.918;2024-02-26T07:02:16;6.90;;;6.32;;
17214;SDS011;8723;51.502;6.918;2024-02-26T07:04:43;7.03;;;6.53;;
17214;SDS011;8723;51.502;6.918;2024-02-26T07:07:10;8.15;;;7.45;;
17214;SDS011;8723;51.502;6.918;2024-02-26T07:09:37;7.93;;;7.22;;
17214;SDS011;8723;51.502;6.918;2024-02-26T07:12:04;6.82;;;6.22;;
17214;SDS011;8723;51.502;6.918;2024-02-26T07:14:33;7.00;;;6.40;;
17214;SDS011;8723;51.502;6.918;2024-02-26T07:17:02;7.07;;;6.47;;
17214;SDS011;8723;51.502;6.918;2024-02-26T07:19:29;6.60;;;6.00;;
17214;SDS011;8723;51.502;6.918;2024-02-26T07:21:57;7.07;;;6.45;;
17214;SDS011;8723;51.502;6.918;2024-02-26T07:24:26;8.00;;;7.30;;
17214;SDS011;8723;51.502;6.918;2024-02-26T07:26:53;7.70;;;7.00;;
17214;SDS011;8723;51.502;6.918;2024-02-26T07:29:20;8.13;;;7.32;;
17214;SDS011;8723;51.502;6.918;2024-02-26T07:31:49;7.00;;;6.30;;
17214;SDS011;8723;51.502;6.918;2024-02-26T07:34:16;7.90;;;7.10;;
17214;SDS011;8723;51.502;6.918;2024-02-26T07:36:43;7.20;;;6.50;;
17214;SDS011;8723;51.502;6.918;2024-02-26T07:39:10;7.50;;;6.90;;
17214;SDS011;8723;51.502;6.918;2024-02-26T07:41:37;6.72;;;6.07;;
17214;SDS011;8723;51.502;6.918;2024-02-26T07:44:05;6.75;;;6.15;;
17214;SDS011;8723;51.502;6.918;2024-02-26T07:46:32;6.95;;;6.32;;
17214;SDS011;8723;51.502;6.918;2024-02-26T07:49:00;6.80;;;6.20;;
17214;SDS011;8723;51.502;6.918;2024-02-26T07:51:27;6.37;;;5.87;;
17214;SDS011;8723;51.502;6.918;2024-02-26T07:53:55;6.60;;;5.93;;
17214;SDS011;8723;51.502;6.918;2024-02-26T07:56:22;6.35;;;5.72;;
17214;SDS011;8723;51.502;6.918;2024-02-26T07:58:49;6.57;;;5.97;;
17214;SDS011;8723;51.502;6.918;2024-02-26T08:01:16;7.05;;;6.35;;
17214;SDS011;8723;51.502;6.918;2024-02-26T08:03:43;6.63;;;6.13;;
17214;SDS011;8723;51.502;6.918;2024-02-26T08:06:12;6.55;;;5.95;;
17214;SDS011;8723;51.502;6.918;2024-02-26T08:08:39;6.03;;;5.53;;
17214;SDS011;8723;51.502;6.918;2024-02-26T08:11:06;5.55;;;5.10;;
17214;SDS011;8723;51.502;6.918;2024-02-26T08:13:33;6.07;;;5.47;;
17214;SDS011;8723;51.502;6.918;2024-02-26T08:16:01;5.80;;;5.40;;
17214;SDS011;8723;51.502;6.918;2024-02-26T08:18:28;5.80;;;5.38;;
17214;SDS011;8723;51.502;6.918;2024-02-26T08:20:55;7.45;;;6.72;;
17214;SDS011;8723;51.502;6.918;2024-02-26T08:23:23;6.85;;;6.25;;
17214;SDS011;8723;51.502;6.918;2024-02-26T08:25:51;6.70;;;6.10;;
17214;SDS011;8723;51.502;6.918;2024-02-26T08:28:18;6.57;;;6.07;;
17214;SDS011;8723;51.502;6.918;2024-02-26T08:30:45;7.53;;;6.90;;
17214;SDS011;8723;51.502;6.918;2024-02-26T08:33:12;6.72;;;6.13;;
17214;SDS011;8723;51.502;6.918;2024-02-26T08:35:40;6.85;;;6.25;;
17214;SDS011;8723;51.502;6.918;2024-02-26T08:38:07;6.47;;;5.93;;
17214;SDS011;8723;51.502;6.918;2024-02-26T08:40:37;7.68;;;7.07;;
17214;SDS011;8723;51.502;6.918;2024-02-26T08:43:04;7.18;;;6.47;;
17214;SDS011;8723;51.502;6.918;2024-02-26T08:45:31;6.03;;;5.47;;
17214;SDS011;8723;51.502;6.918;2024-02-26T08:47:58;5.78;;;5.38;;
17214;SDS011;8723;51.502;6.918;2024-02-26T08:50:25;6.40;;;5.80;;
17214;SDS011;8723;51.502;6.918;2024-02-26T08:52:52;6.77;;;6.17;;
17214;SDS011;8723;51.502;6.918;2024-02-26T08:55:19;5.95;;;5.45;;
17214;SDS011;8723;51.502;6.918;2024-02-26T08:57:48;6.13;;;5.53;;
17214;SDS011;8723;51.502;6.918;2024-02-26T09:00:15;6.35;;;5.65;;
17214;SDS011;8723;51.502;6.918;2024-02-26T09:02:45;6.40;;;5.90;;
17214;SDS011;8723;51.502;6.918;2024-02-26T09:05:12;6.40;;;5.88;;
17214;SDS011;8723;51.502;6.918;2024-02-26T09:07:39;6.03;;;5.53;;
17214;SDS011;8723;51.502;6.918;2024-02-26T09:10:07;5.82;;;5.32;;
17214;SDS011;8723;51.502;6.918;2024-02-26T09:12:35;6.07;;;5.68;;
17214;SDS011;8723;51.502;6.918;2024-02-26T09:15:04;6.10;;;5.60;;
17214;SDS011;8723;51.502;6.918;2024-02-26T09:17:32;6.10;;;5.60;;
17214;SDS011;8723;51.502;6.918;2024-02-26T09:19:59;6.83;;;5.87;;
17214;SDS011;8723;51.502;6.918;2024-02-26T09:22:26;5.85;;;5.45;;
17214;SDS011;8723;51.502;6.918;2024-02-26T09:24:53;5.90;;;5.50;;
17214;SDS011;8723;51.502;6.918;2024-02-26T09:27:20;5.63;;;5.13;;
17214;SDS011;8723;51.502;6.918;2024-02-26T09:29:48;5.70;;;5.30;;
17214;SDS011;8723;51.502;6.918;2024-02-26T09:32:17;5.68;;;5.18;;
17214;SDS011;8723;51.502;6.918;2024-02-26T09:34:44;5.80;;;5.30;;
17214;SDS011;8723;51.502;6.918;2024-02-26T09:37:11;5.60;;;5.10;;
17214;SDS011;8723;51.502;6.918;2024-02-26T09:39:38;5.82;;;5.32;;
17214;SDS011;8723;51.502;6.918;2024-02-26T09:42:05;5.85;;;5.40;;
17214;SDS011;8723;51.502;6.918;2024-02-26T09:44:35;5.40;;;5.00;;
17214;SDS011;8723;51.502;6.918;2024-02-26T09:47:03;6.07;;;5.57;;
17214;SDS011;8723;51.502;6.918;2024-02-26T09:49:33;6.43;;;5.93;;
17214;SDS011;8723;51.502;6.918;2024-02-26T09:52:03;6.18;;;5.68;;
17214;SDS011;8723;51.502;6.918;2024-02-26T09:54:31;6.20;;;5.60;;
17214;SDS011;8723;51.502;6.918;2024-02-26T09:56:59;6.80;;;6.10;;
17214;SDS011;8723;51.502;6.918;2024-02-26T09:59:27;6.28;;;5.78;;
17214;SDS011;8723;51.502;6.918;2024-02-26T10:01:55;6.90;;;6.30;;
17214;SDS011;8723;51.502;6.918;2024-02-26T10:04:23;6.85;;;6.25;;
17214;SDS011;8723;51.502;6.918;2024-02-26T10:06:52;6.90;;;6.40;;
17214;SDS011;8723;51.502;6.918;2024-02-26T10:09:20;6.90;;;6.32;;
17214;SDS011;8723;51.502;6.918;2024-02-26T10:11:47;7.00;;;6.43;;
17214;SDS011;8723;51.502;6.918;2024-02-26T10:14:15;7.57;;;6.80;;
17214;SDS011;8723;51.502;6.918;2024-02-26T10:16:42;7.00;;;6.40;;
17214;SDS011;8723;51.502;6.918;2024-02-26T10:19:10;6.93;;;6.33;;
17214;SDS011;8723;51.502;6.918;2024-02-26T10:21:54;7.28;;;6.68;;
17214;SDS011;8723;51.502;6.918;2024-02-26T10:24:21;7.77;;;6.97;;
17214;SDS011;8723;51.502;6.918;2024-02-26T10:26:48;7.00;;;6.40;;
17214;SDS011;8723;51.502;6.918;2024-02-26T10:29:15;7.10;;;6.50;;
17214;SDS011;8723;51.502;6.918;2024-02-26T10:31:43;7.38;;;6.78;;
17214;SDS011;8723;51.502;6.918;2024-02-26T10:34:10;7.40;;;6.80;;
17214;SDS011;8723;51.502;6.918;2024-02-26T10:36:37;7.07;;;6.38;;
17214;SDS011;8723;51.502;6.918;2024-02-26T10:39:07;7.10;;;6.50;;
17214;SDS011;8723;51.502;6.918;2024-02-26T10:41:34;7.70;;;7.10;;
17214;SDS011;8723;51.502;6.918;2024-02-26T10:44:01;7.90;;;7.20;;
17214;SDS011;8723;51.502;6.918;2024-02-26T10:46:29;6.95;;;6.45;;
17214;SDS011;8723;51.502;6.918;2024-02-26T10:48:56;7.90;;;7.20;;
17214;SDS011;8723;51.502;6.918;2024-02-26T10:51:25;8.32;;;7.53;;
17214;SDS011;8723;51.502;6.918;2024-02-26T10:53:54;8.45;;;7.57;;
17214;SDS011;8723;51.502;6.918;2024-02-26T10:56:24;9.32;;;8.52;;
17214;SDS011;8723;51.502;6.918;2024-02-26T10:58:53;9.50;;;8.57;;
17214;SDS011;8723;51.502;6.918;2024-02-26T11:01:20;9.63;;;8.70;;
17214;SDS011;8723;51.502;6.918;2024-02-26T11:03:50;9.77;;;8.95;;
17214;SDS011;8723;51.502;6.918;2024-02-26T11:06:18;10.23;;;9.32;;
17214;SDS011;8723;51.502;6.918;2024-02-26T11:08:47;9.98;;;9.07;;
17214;SDS011;8723;51.502;6.918;2024-02-26T11:11:15;10.75;;;9.65;;
17214;SDS011;8723;51.502;6.918;2024-02-26T11:13:45;10.43;;;9.35;;
17214;SDS011;8723;51.502;6.918;2024-02-26T11:16:15;9.40;;;8.50;;
17214;SDS011;8723;51.502;6.918;2024-02-26T11:18:43;9.03;;;8.33;;
17214;SDS011;8723;51.502;6.918;2024-02-26T11:21:11;8.60;;;7.80;;
17214;SDS011;8723;51.502;6.918;2024-02-26T11:23:40;7.07;;;6.37;;
17214;SDS011;8723;51.502;6.918;2024-02-26T11:26:07;7.68;;;7.07;;
17214;SDS011;8723;51.502;6.918;2024-02-26T11:28:35;7.95;;;7.25;;
17214;SDS011;8723;51.502;6.918;2024-02-26T11:31:04;8.23;;;7.43;;
17214;SDS011;8723;51.502;6.918;2024-02-26T11:33:32;7.53;;;6.93;;
17214;SDS011;8723;51.502;6.918;2024-02-26T11:36:00;8.43;;;7.72;;
17214;SDS011;8723;51.502;6.918;2024-02-26T11:38:28;8.68;;;7.95;;
17214;SDS011;8723;51.502;6.918;2024-02-26T11:40:55;8.70;;;7.90;;
17214;SDS011;8723;51.502;6.918;2024-02-26T11:43:23;9.15;;;8.35;;
17214;SDS011;8723;51.502;6.918;2024-02-26T11:45:50;9.57;;;8.70;;
17214;SDS011;8723;51.502;6.918;2024-02-26T11:48:22;10.57;;;9.48;;
17214;SDS011;8723;51.502;6.918;2024-02-26T11:50:50;10.45;;;9.38;;
17214;SDS011;8723;51.502;6.918;2024-02-26T11:53:22;9.15;;;8.30;;
17214;SDS011;8723;51.502;6.918;2024-02-26T11:58:31;10.68;;;9.65;;
17214;SDS011;8723;51.502;6.918;2024-02-26T12:00:58;10.60;;;9.60;;
17214;SDS011;8723;51.502;6.918;2024-02-26T12:03:27;10.10;;;9.20;;
17214;SDS011;8723;51.502;6.918;2024-02-26T12:05:55;10.82;;;9.88;;
17214;SDS011;8723;51.502;6.918;2024-02-26T12:08:23;12.43;;;11.25;;
17214;SDS011;8723;51.502;6.918;2024-02-26T12:10:50;10.38;;;9.40;;
17214;SDS011;8723;51.502;6.918;2024-02-26T12:13:20;10.73;;;9.80;;
17214;SDS011;8723;51.502;6.918;2024-02-26T12:15:54;11.60;;;10.52;;
17214;SDS011;8723;51.502;6.918;2024-02-26T12:18:22;12.13;;;11.00;;
17214;SDS011;8723;51.502;6.918;2024-02-26T12:20:59;12.07;;;10.87;;
17214;SDS011;8723;51.502;6.918;2024-02-26T12:23:26;10.90;;;9.90;;
17214;SDS011;8723;51.502;6.918;2024-02-26T12:25:54;11.50;;;10.40;;
17214;SDS011;8723;51.502;6.918;2024-02-26T12:28:27;11.43;;;10.43;;
17214;SDS011;8723;51.502;6.918;2024-02-26T12:30:54;10.90;;;9.80;;
17214;SDS011;8723;51.502;6.918;2024-02-26T12:33:21;11.00;;;10.10;;
17214;SDS011;8723;51.502;6.918;2024-02-26T12:35:50;11.75;;;10.57;;
17214;SDS011;8723;51.502;6.918;2024-02-26T12:38:19;12.27;;;11.17;;
17214;SDS011;8723;51.502;6.918;2024-02-26T12:40:46;11.95;;;10.85;;
17214;SDS011;8723;51.502;6.918;2024-02-26T12:43:14;11.93;;;10.82;;
17214;SDS011;8723;51.502;6.918;2024-02-26T12:45:42;10.27;;;9.27;;
17214;SDS011;8723;51.502;6.918;2024-02-26T12:48:11;11.00;;;10.10;;
17214;SDS011;8723;51.502;6.918;2024-02-26T12:50:39;10.23;;;9.32;;
17214;SDS011;8723;51.502;6.918;2024-02-26T12:53:06;9.70;;;8.93;;
17214;SDS011;8723;51.502;6.918;2024-02-26T12:55:34;10.70;;;9.70;;
17214;SDS011;8723;51.502;6.918;2024-02-26T12:58:04;10.45;;;9.55;;
17214;SDS011;8723;51.502;6.918;2024-02-26T13:00:31;10.00;;;9.05;;
17214;SDS011;8723;51.502;6.918;2024-02-26T13:02:59;9.43;;;8.63;;
17214;SDS011;8723;51.502;6.918;2024-02-26T13:05:26;9.32;;;8.43;;
17214;SDS011;8723;51.502;6.918;2024-02-26T13:07:53;9.63;;;8.65;;
17214;SDS011;8723;51.502;6.918;2024-02-26T13:10:20;8.60;;;7.80;;
17214;SDS011;8723;51.502;6.918;2024-02-26T13:12:49;8.40;;;7.70;;
17214;SDS011;8723;51.502;6.918;2024-02-26T13:15:18;9.75;;;8.88;;
17214;SDS011;8723;51.502;6.918;2024-02-26T13:17:45;9.43;;;8.63;;
17214;SDS011;8723;51.502;6.918;2024-02-26T13:20:13;9.25;;;8.45;;
17214;SDS011;8723;51.502;6.918;2024-02-26T13:22:40;8.65;;;7.95;;
17214;SDS011;8723;51.502;6.918;2024-02-26T13:25:07;8.80;;;8.10;;
17214;SDS011;8723;51.502;6.918;2024-02-26T13:27:35;7.82;;;7.13;;
17214;SDS011;8723;51.502;6.918;2024-02-26T13:30:04;7.45;;;6.75;;
17214;SDS011;8723;51.502;6.918;2024-02-26T13:32:32;8.47;;;7.67;;
17214;SDS011;8723;51.502;6.918;2024-02-26T13:35:04;8.00;;;7.30;;
17214;SDS011;8723;51.502;6.918;2024-02-26T13:37:32;8.07;;;7.28;;
17214;SDS011;8723;51.502;6.918;2024-02-26T13:39:59;9.40;;;8.57;;
17214;SDS011;8723;51.502;6.918;2024-02-26T13:42:29;6.93;;;6.30;;
17214;SDS011;8723;51.502;6.918;2024-02-26T13:44:56;6.50;;;6.00;;
17214;SDS011;8723;51.502;6.918;2024-02-26T13:47:25;7.10;;;6.50;;
17214;SDS011;8723;51.502;6.918;2024-02-26T13:49:52;5.88;;;5.40;;
17214;SDS011;8723;51.502;6.918;2024-02-26T13:52:19;6.38;;;5.88;;
17214;SDS011;8723;51.502;6.918;2024-02-26T13:54:46;6.25;;;5.75;;
17214;SDS011;8723;51.502;6.918;2024-02-26T13:57:13;6.28;;;5.68;;
17214;SDS011;8723;51.502;6.918;2024-02-26T13:59:41;6.15;;;5.55;;
17214;SDS011;8723;51.502;6.918;2024-02-26T14:02:08;5.88;;;5.38;;
17214;SDS011;8723;51.502;6.918;2024-02-26T14:04:37;6.00;;;5.50;;
17214;SDS011;8723;51.502;6.918;2024-02-26T14:07:04;6.13;;;5.72;;
17214;SDS011;8723;51.502;6.918;2024-02-26T14:09:31;6.25;;;5.65;;
17214;SDS011;8723;51.502;6.918;2024-02-26T14:11:59;6.10;;;5.60;;
17214;SDS011;8723;51.502;6.918;2024-02-26T14:14:27;6.28;;;5.78;;
17214;SDS011;8723;51.502;6.918;2024-02-26T14:16:55;6.80;;;6.30;;
17214;SDS011;8723;51.502;6.918;2024-02-26T14:19:22;6.75;;;6.15;;
17214;SDS011;8723;51.502;6.918;2024-02-26T14:21:51;6.40;;;5.82;;
17214;SDS011;8723;51.502;6.918;2024-02-26T14:24:18;6.67;;;6.17;;
17214;SDS011;8723;51.502;6.918;2024-02-26T14:26:45;6.70;;;6.13;;
17214;SDS011;8723;51.502;6.918;2024-02-26T14:29:12;6.45;;;5.95;;
17214;SDS011;8723;51.502;6.918;2024-02-26T14:31:41;6.20;;;5.70;;
17214;SDS011;8723;51.502;6.918;2024-02-26T14:34:08;7.25;;;6.65;;
17214;SDS011;8723;51.502;6.918;2024-02-26T14:36:35;6.53;;;6.03;;
17214;SDS011;8723;51.502;6.918;2024-02-26T14:39:04;6.10;;;5.60;;
17214;SDS011;8723;51.502;6.918;2024-02-26T14:41:31;6.75;;;6.05;;
17214;SDS011;8723;51.502;6.918;2024-02-26T14:43:58;6.60;;;5.90;;
17214;SDS011;8723;51.502;6.918;2024-02-26T14:46:25;6.60;;;6.00;;
17214;SDS011;8723;51.502;6.918;2024-02-26T14:48:52;6.38;;;5.88;;
17214;SDS011;8723;51.502;6.918;2024-02-26T14:51:21;6.65;;;6.05;;
17214;SDS011;8723;51.502;6.918;2024-02-26T14:53:48;6.50;;;5.88;;
17214;SDS011;8723;51.502;6.918;2024-02-26T14:56:17;5.88;;;5.38;;
17214;SDS011;8723;51.502;6.918;2024-02-26T14:58:44;6.28;;;5.75;;
17214;SDS011;8723;51.502;6.918;2024-02-26T15:01:11;5.85;;;5.35;;
17214;SDS011;8723;51.502;6.918;2024-02-26T15:03:38;5.90;;;5.47;;
17214;SDS011;8723;51.502;6.918;2024-02-26T15:06:06;5.80;;;5.00;;